createdAt,value
2018-02-12T00:01:47.128Z,91.43
2018-02-12T00:04:13.093Z,91.42
2018-02-12T00:06:39.117Z,91.39
2018-02-12T00:09:05.193Z,91.17
2018-02-12T00:11:31.301Z,91.34
2018-02-12T00:13:57.296Z,91.25
2018-02-12T00:16:23.580Z,91.21
2018-02-12T00:18:49.647Z,91.15
2018-02-12T00:21:15.647Z,91.01
2018-02-12T00:23:41.680Z,91.06
2018-02-12T00:26:07.656Z,90.94
2018-02-12T00:28:33.669Z,91.02
2018-02-12T00:30:59.682Z,90.90
2018-02-12T00:33:25.728Z,90.84
2018-02-12T00:35:51.729Z,90.79
2018-02-12T00:38:18.212Z,90.70
2018-02-12T00:40:44.202Z,90.58
2018-02-12T00:43:10.191Z,90.49
2018-02-12T00:45:36.236Z,90.39
2018-02-12T00:48:02.306Z,90.26
2018-02-12T00:50:28.319Z,90.64
2018-02-12T00:52:54.279Z,91.70
2018-02-12T00:55:20.328Z,91.89
2018-02-12T00:57:46.318Z,90.88
2018-02-12T01:00:12.641Z,90.42
2018-02-12T01:02:38.697Z,90.24
2018-02-12T01:05:04.708Z,90.34
2018-02-12T01:07:30.705Z,90.30
2018-02-12T01:09:56.716Z,90.32
2018-02-12T01:12:23.099Z,90.20
2018-02-12T01:14:49.166Z,90.57
2018-02-12T01:17:15.237Z,90.08
2018-02-12T01:19:41.336Z,89.81
2018-02-12T01:22:07.332Z,89.52
2018-02-12T01:24:33.372Z,89.48
2018-02-12T01:26:59.389Z,89.36
2018-02-12T01:29:25.392Z,89.25
2018-02-12T01:31:51.443Z,89.33
2018-02-12T01:34:17.433Z,89.29
2018-02-12T01:36:43.756Z,89.26
2018-02-12T01:39:09.780Z,89.44
2018-02-12T01:41:35.769Z,89.52
2018-02-12T01:44:01.805Z,89.43
2018-02-12T01:46:27.861Z,89.14
2018-02-12T01:48:53.893Z,89.01
2018-02-12T01:51:19.900Z,89.14
2018-02-12T01:53:45.935Z,89.15
2018-02-12T01:56:11.966Z,88.95
2018-02-12T01:58:38.287Z,89.19
2018-02-12T02:01:04.287Z,88.97
2018-02-12T02:03:30.329Z,88.86
2018-02-12T02:05:56.356Z,88.78
2018-02-12T02:08:22.339Z,88.88
2018-02-12T02:10:48.320Z,88.65
2018-02-12T02:13:14.293Z,88.80
2018-02-12T02:15:40.603Z,88.64
2018-02-12T02:18:06.599Z,88.47
2018-02-12T02:20:32.607Z,88.46
2018-02-12T02:22:58.617Z,88.71
2018-02-12T02:25:24.577Z,88.79
2018-02-12T02:27:50.568Z,88.35
2018-02-12T02:30:16.617Z,88.37
2018-02-12T02:32:42.614Z,88.50
2018-02-12T02:35:08.605Z,88.48
2018-02-12T02:37:34.932Z,88.40
2018-02-12T02:40:00.977Z,88.20
2018-02-12T02:42:27.106Z,88.25
2018-02-12T02:44:53.136Z,88.19
2018-02-12T02:47:19.102Z,88.04
2018-02-12T02:49:45.117Z,88.27
2018-02-12T02:52:11.197Z,88.20
2018-02-12T02:54:37.685Z,87.99
2018-02-12T02:57:03.758Z,87.93
2018-02-12T02:59:29.773Z,87.92
2018-02-12T03:01:55.870Z,87.97
2018-02-12T03:04:21.880Z,87.92
2018-02-12T03:06:47.965Z,88.13
2018-02-12T03:09:13.963Z,87.97
2018-02-12T03:11:40.352Z,88.34
2018-02-12T03:14:06.352Z,88.26
2018-02-12T03:16:32.340Z,88.30
2018-02-12T03:18:58.365Z,88.55
2018-02-12T03:21:24.346Z,88.62
2018-02-12T03:23:50.365Z,88.97
2018-02-12T03:26:16.356Z,89.18
2018-02-12T03:28:42.741Z,89.40
2018-02-12T03:31:08.809Z,89.82
2018-02-12T03:33:34.752Z,90.14
2018-02-12T03:36:00.760Z,90.43
2018-02-12T03:38:26.719Z,90.55
2018-02-12T03:40:53.068Z,90.97
2018-02-12T03:43:19.105Z,91.10
2018-02-12T03:46:00.042Z,91.35
2018-02-12T03:48:26.056Z,91.65
2018-02-12T03:50:52.122Z,91.70
2018-02-12T03:53:18.152Z,91.98
2018-02-12T03:55:44.162Z,92.14
2018-02-12T03:58:10.621Z,92.22
2018-02-12T04:00:36.674Z,92.46
2018-02-12T04:03:02.681Z,92.85
2018-02-12T04:05:28.686Z,93.17
2018-02-12T04:07:54.678Z,93.33
2018-02-12T04:10:20.713Z,93.52
2018-02-12T04:12:46.678Z,93.61
2018-02-12T04:15:12.720Z,93.68
2018-02-12T04:17:38.720Z,93.75
2018-02-12T04:20:04.752Z,93.59
2018-02-12T04:22:30.776Z,93.56
2018-02-12T04:24:56.772Z,93.70
2018-02-12T04:27:23.112Z,93.65
2018-02-12T04:29:49.125Z,93.68
2018-02-12T04:32:15.168Z,93.52
2018-02-12T04:34:41.172Z,93.49
2018-02-12T04:37:07.196Z,93.46
2018-02-12T04:39:33.221Z,92.93
2018-02-12T04:41:59.219Z,92.96
2018-02-12T04:44:25.617Z,92.89
2018-02-12T04:46:51.666Z,92.82
2018-02-12T04:49:17.641Z,92.63
2018-02-12T04:51:43.664Z,92.74
2018-02-12T04:54:09.657Z,92.50
2018-02-12T04:56:35.700Z,92.24
2018-02-12T04:59:01.717Z,92.27
2018-02-12T05:01:27.716Z,92.49
2018-02-12T05:03:53.697Z,92.22
2018-02-12T05:06:19.749Z,92.08
2018-02-12T05:08:45.773Z,91.92
2018-02-12T05:11:11.762Z,91.83
2018-02-12T05:13:37.784Z,91.61
2018-02-12T05:16:03.813Z,91.68
2018-02-12T05:18:30.143Z,91.21
2018-02-12T05:20:56.172Z,91.17
2018-02-12T05:23:22.170Z,91.30
2018-02-12T05:25:48.196Z,91.32
2018-02-12T05:28:14.204Z,91.72
2018-02-12T05:30:40.217Z,91.30
2018-02-12T05:33:06.250Z,91.48
2018-02-12T05:35:32.548Z,91.33
2018-02-12T05:37:58.506Z,91.59
2018-02-12T05:40:24.489Z,91.79
2018-02-12T05:42:50.529Z,91.93
2018-02-12T05:45:16.525Z,91.92
2018-02-12T05:47:42.558Z,91.91
2018-02-12T05:50:08.585Z,91.87
2018-02-12T05:52:34.932Z,92.63
2018-02-12T05:55:00.866Z,92.49
2018-02-12T05:57:26.945Z,91.77
2018-02-12T05:59:52.964Z,91.58
2018-02-12T06:02:18.985Z,90.89
2018-02-12T06:04:45.039Z,90.27
2018-02-12T06:07:11.048Z,89.93
2018-02-12T06:09:37.417Z,90.01
2018-02-12T06:12:03.441Z,90.00
2018-02-12T06:14:29.501Z,88.73
2018-02-12T06:16:55.485Z,89.27
2018-02-12T06:19:21.500Z,88.29
2018-02-12T06:21:47.581Z,88.36
2018-02-12T06:24:13.597Z,88.31
2018-02-12T06:26:39.589Z,88.39
2018-02-12T06:29:05.664Z,87.92
2018-02-12T06:31:31.672Z,87.68
2018-02-12T06:33:57.653Z,87.31
2018-02-12T06:36:23.624Z,87.55
2018-02-12T06:38:49.921Z,87.64
2018-02-12T06:41:15.937Z,87.60
2018-02-12T06:43:41.932Z,88.04
2018-02-12T06:46:07.924Z,87.70
2018-02-12T06:48:33.939Z,88.03
2018-02-12T06:51:00.275Z,88.32
2018-02-12T06:53:26.246Z,88.16
2018-02-12T06:55:52.263Z,88.44
2018-02-12T06:58:18.282Z,88.45
2018-02-12T07:00:44.272Z,88.39
2018-02-12T07:03:10.599Z,88.42
2018-02-12T07:05:36.586Z,88.30
2018-02-12T07:08:02.629Z,88.45
2018-02-12T07:10:28.613Z,88.45
2018-02-12T07:12:54.628Z,88.55
2018-02-12T07:15:20.655Z,88.55
2018-02-12T07:17:46.617Z,88.77
2018-02-12T07:20:12.971Z,88.92
2018-02-12T07:22:38.969Z,88.69
2018-02-12T07:25:04.978Z,88.66
2018-02-12T07:27:31.001Z,88.73
2018-02-12T07:29:57.009Z,88.83
2018-02-12T07:32:23.104Z,88.88
2018-02-12T07:34:49.090Z,88.60
2018-02-12T07:37:15.097Z,88.26
2018-02-12T07:39:41.056Z,88.13
2018-02-12T07:42:07.396Z,87.90
2018-02-12T07:44:33.568Z,87.46
2018-02-12T07:46:59.657Z,87.42
2018-02-12T07:49:25.652Z,87.61
2018-02-12T07:51:51.649Z,87.45
2018-02-12T07:54:17.645Z,87.49
2018-02-12T07:56:43.664Z,87.42
2018-02-12T07:59:09.688Z,87.64
2018-02-12T08:01:35.712Z,87.37
2018-02-12T08:04:02.147Z,87.55
2018-02-12T08:06:28.224Z,87.81
2018-02-12T08:08:54.361Z,87.85
2018-02-12T08:11:20.356Z,87.39
2018-02-12T08:13:46.360Z,87.59
2018-02-12T08:16:12.379Z,87.42
2018-02-12T08:18:38.396Z,87.57
2018-02-12T08:21:04.709Z,87.58
2018-02-12T08:23:30.615Z,87.25
2018-02-12T08:25:56.617Z,87.00
2018-02-12T08:28:22.662Z,87.30
2018-02-12T08:30:48.742Z,86.69
2018-02-12T08:33:14.789Z,86.89
2018-02-12T08:35:40.773Z,86.63
2018-02-12T08:38:06.803Z,85.82
2018-02-12T08:40:32.809Z,85.97
2018-02-12T08:42:59.156Z,85.74
2018-02-12T08:45:25.188Z,84.78
2018-02-12T08:47:51.244Z,85.22
2018-02-12T08:50:17.413Z,85.23
2018-02-12T08:52:43.412Z,85.62
2018-02-12T08:55:09.541Z,85.15
2018-02-12T08:57:35.498Z,84.44
2018-02-12T09:00:01.824Z,84.99
2018-02-12T09:02:27.836Z,84.85
2018-02-12T09:04:53.893Z,83.61
2018-02-12T09:07:19.960Z,83.92
2018-02-12T09:09:45.881Z,84.12
2018-02-12T09:12:12.172Z,82.36
2018-02-12T09:14:38.196Z,83.09
2018-02-12T09:17:04.193Z,81.84
2018-02-12T09:19:30.206Z,81.16
2018-02-12T09:21:56.213Z,81.32
2018-02-12T09:24:22.589Z,81.06
2018-02-12T09:26:48.593Z,80.02
2018-02-12T09:29:14.592Z,80.62
2018-02-12T09:31:40.589Z,79.44
2018-02-12T09:34:06.551Z,79.69
2018-02-12T09:36:32.891Z,78.66
2018-02-12T09:38:58.905Z,79.10
2018-02-12T09:41:24.904Z,79.60
2018-02-12T09:43:50.918Z,81.90
2018-02-12T09:46:17.229Z,83.15
2018-02-12T09:48:43.255Z,84.30
2018-02-12T09:51:09.265Z,86.60
2018-02-12T09:53:35.276Z,88.37
2018-02-12T09:56:01.345Z,88.91
2018-02-12T09:58:27.764Z,88.88
2018-02-12T10:00:53.776Z,88.91
2018-02-12T10:03:19.795Z,88.26
2018-02-12T10:05:45.825Z,87.61
2018-02-12T10:08:12.057Z,86.65
2018-02-12T10:10:38.077Z,86.24
2018-02-12T10:13:04.080Z,85.15
2018-02-12T10:15:30.360Z,84.61
2018-02-12T10:17:56.369Z,85.26
2018-02-12T10:20:22.353Z,83.95
2018-02-12T10:22:48.420Z,82.98
2018-02-12T10:25:14.394Z,83.20
2018-02-12T10:27:40.785Z,81.05
2018-02-12T10:30:06.793Z,79.56
2018-02-12T10:32:32.794Z,79.95
2018-02-12T10:34:58.873Z,77.75
2018-02-12T10:37:24.900Z,77.43
2018-02-12T10:39:51.242Z,78.08
2018-02-12T10:42:17.236Z,78.37
2018-02-12T10:44:43.220Z,77.95
2018-02-12T10:47:09.237Z,76.37
2018-02-12T10:49:35.236Z,76.42
2018-02-12T10:52:01.313Z,76.60
2018-02-12T10:54:27.301Z,77.08
2018-02-12T10:56:53.729Z,79.26
2018-02-12T10:59:19.712Z,81.07
2018-02-12T11:01:45.861Z,83.14
2018-02-12T11:04:11.959Z,84.90
2018-02-12T11:06:37.943Z,87.53
2018-02-12T11:09:03.941Z,88.95
2018-02-12T11:11:29.968Z,88.84
2018-02-12T11:13:55.984Z,88.06
2018-02-12T11:16:22.052Z,87.45
2018-02-12T11:18:48.392Z,87.50
2018-02-12T11:21:14.412Z,86.17
2018-02-12T11:23:40.387Z,85.31
2018-02-12T11:26:06.407Z,85.20
2018-02-12T11:28:32.411Z,84.15
2018-02-12T11:30:58.439Z,85.55
2018-02-12T11:33:24.459Z,86.73
2018-02-12T11:35:50.504Z,85.87
2018-02-12T11:38:16.521Z,84.97
2018-02-12T11:40:42.512Z,85.13
2018-02-12T11:43:08.840Z,82.73
2018-02-12T11:45:34.893Z,83.28
2018-02-12T11:48:00.909Z,82.04
2018-02-12T11:50:26.925Z,81.54
2018-02-12T11:52:52.910Z,79.08
2018-02-12T11:55:18.932Z,79.95
2018-02-12T11:57:44.996Z,78.55
2018-02-12T12:00:11.073Z,78.88
2018-02-12T12:02:37.158Z,79.08
2018-02-12T12:05:03.246Z,76.50
2018-02-12T12:07:29.680Z,76.47
2018-02-12T12:09:55.688Z,75.46
2018-02-12T12:12:21.698Z,74.29
2018-02-12T12:14:47.748Z,76.18
2018-02-12T12:17:13.748Z,74.91
2018-02-12T12:19:39.735Z,74.97
2018-02-12T12:22:05.725Z,77.13
2018-02-12T12:24:32.112Z,83.06
2018-02-12T12:26:58.160Z,88.71
2018-02-12T12:29:24.185Z,89.49
2018-02-12T12:31:50.168Z,90.46
2018-02-12T12:34:16.195Z,88.98
2018-02-12T12:36:42.223Z,89.27
2018-02-12T12:39:08.172Z,88.54
2018-02-12T12:41:34.208Z,88.99
2018-02-12T12:44:00.202Z,87.40
2018-02-12T12:46:26.680Z,86.26
2018-02-12T12:48:52.687Z,85.24
2018-02-12T12:51:18.667Z,86.27
2018-02-12T12:53:44.720Z,86.22
2018-02-12T12:56:10.763Z,86.78
2018-02-12T12:58:36.804Z,87.45
2018-02-12T13:01:02.816Z,88.32
2018-02-12T13:03:29.158Z,88.16
2018-02-12T13:05:55.222Z,85.53
2018-02-12T13:08:21.296Z,80.94
2018-02-12T13:10:47.289Z,79.07
2018-02-12T13:13:13.339Z,79.77
2018-02-12T13:15:39.328Z,78.56
2018-02-12T13:18:05.336Z,76.80
2018-02-12T13:20:31.720Z,78.87
2018-02-12T13:22:57.733Z,79.77
2018-02-12T13:25:23.724Z,79.87
2018-02-12T13:27:49.792Z,81.55
2018-02-12T13:30:15.847Z,82.25
2018-02-12T13:32:41.856Z,82.75
2018-02-12T13:35:07.901Z,82.00
2018-02-12T13:37:34.236Z,79.84
2018-02-12T13:40:00.239Z,76.80
2018-02-12T13:42:26.333Z,73.56
2018-02-12T13:44:52.301Z,71.92
2018-02-12T13:47:18.383Z,69.76
2018-02-12T13:49:44.420Z,70.56
2018-02-12T13:52:10.436Z,73.45
2018-02-12T13:54:36.471Z,76.51
2018-02-12T13:57:02.537Z,77.67
2018-02-12T13:59:28.493Z,77.98
2018-02-12T14:01:54.561Z,77.32
2018-02-12T14:04:20.582Z,77.52
2018-02-12T14:06:46.940Z,77.37
2018-02-12T14:09:12.934Z,77.73
2018-02-12T14:11:38.934Z,76.80
2018-02-12T14:14:04.960Z,72.19
2018-02-12T14:16:31.044Z,69.89
2018-02-12T14:18:57.111Z,68.04
2018-02-12T14:21:23.124Z,64.55
2018-02-12T14:23:49.471Z,63.83
2018-02-12T14:26:15.468Z,62.58
2018-02-12T14:28:41.548Z,65.53
2018-02-12T14:31:07.589Z,66.20
2018-02-12T14:33:33.584Z,67.32
2018-02-12T14:35:59.634Z,68.24
2018-02-12T14:38:25.681Z,70.44
2018-02-12T14:40:52.132Z,70.18
2018-02-12T14:43:18.144Z,70.50
2018-02-12T14:45:44.197Z,69.90
2018-02-12T14:48:10.190Z,70.00
2018-02-12T14:50:36.216Z,69.36
2018-02-12T14:53:02.264Z,71.42
2018-02-12T14:55:28.308Z,70.52
2018-02-12T14:57:54.325Z,69.29
2018-02-12T15:00:20.313Z,69.17
2018-02-12T15:02:46.652Z,69.67
2018-02-12T15:05:12.653Z,71.84
2018-02-12T15:07:38.673Z,73.87
2018-02-12T15:10:04.725Z,74.73
2018-02-12T15:12:30.724Z,74.02
2018-02-12T15:14:57.084Z,74.48
2018-02-12T15:17:23.164Z,75.53
2018-02-12T15:19:49.245Z,76.31
2018-02-12T15:22:15.332Z,76.97
2018-02-12T15:24:41.367Z,77.42
2018-02-12T15:27:07.728Z,77.40
2018-02-12T15:29:33.790Z,77.37
2018-02-12T15:31:59.794Z,78.06
2018-02-12T15:34:26.620Z,78.38
2018-02-12T15:36:52.609Z,78.63
2018-02-12T15:39:18.621Z,78.58
2018-02-12T15:41:44.624Z,78.88
2018-02-12T15:44:11.030Z,79.17
2018-02-12T15:46:37.044Z,79.64
2018-02-12T15:49:03.046Z,80.47
2018-02-12T15:51:29.088Z,80.29
2018-02-12T15:53:55.139Z,80.66
2018-02-12T15:56:21.568Z,81.55
2018-02-12T15:58:47.559Z,83.24
2018-02-12T16:01:13.561Z,84.50
2018-02-12T16:03:39.585Z,86.65
2018-02-12T16:06:05.577Z,88.05
2018-02-12T16:08:31.841Z,88.93
2018-02-12T16:10:57.875Z,89.68
2018-02-12T16:13:23.868Z,90.08
2018-02-12T16:15:49.877Z,90.33
2018-02-12T16:18:16.434Z,90.63
2018-02-12T16:20:42.413Z,90.73
2018-02-12T16:23:08.428Z,90.87
2018-02-12T16:25:34.437Z,90.38
2018-02-12T16:28:00.461Z,90.19
2018-02-12T16:30:26.497Z,90.09
2018-02-12T16:32:52.853Z,89.38
2018-02-12T16:35:18.860Z,88.80
2018-02-12T16:37:44.832Z,88.32
2018-02-12T16:40:10.864Z,88.06
2018-02-12T16:42:36.869Z,87.81
2018-02-12T16:45:03.957Z,87.94
2018-02-12T16:47:30.021Z,88.10
2018-02-12T16:49:56.026Z,88.40
2018-02-12T16:52:22.029Z,88.01
2018-02-12T16:54:48.309Z,88.27
2018-02-12T16:57:14.330Z,88.38
2018-02-12T16:59:40.301Z,88.40
2018-02-12T17:02:06.368Z,88.16
2018-02-12T17:04:32.395Z,88.20
2018-02-12T17:06:58.480Z,88.32
2018-02-12T17:09:24.504Z,87.93
2018-02-12T17:11:50.909Z,87.41
2018-02-12T17:14:16.925Z,87.87
2018-02-12T17:16:42.948Z,88.51
2018-02-12T17:19:09.008Z,89.39
2018-02-12T17:21:35.016Z,89.44
2018-02-12T17:24:01.337Z,89.55
2018-02-12T17:26:27.338Z,89.67
2018-02-12T17:28:53.357Z,89.55
2018-02-12T17:31:19.410Z,89.28
2018-02-12T17:33:45.392Z,89.33
2018-02-12T17:36:11.453Z,88.77
2018-02-12T17:38:37.394Z,88.31
2018-02-12T17:41:03.438Z,87.90
2018-02-12T17:43:29.524Z,88.13
2018-02-12T17:45:55.976Z,88.33
2018-02-12T17:48:22.001Z,89.15
2018-02-12T17:50:48.047Z,87.95
2018-02-12T17:53:14.105Z,87.66
2018-02-12T17:55:40.097Z,87.08
2018-02-12T17:58:06.102Z,86.96
2018-02-12T18:00:32.141Z,86.65
2018-02-12T18:02:58.453Z,87.11
2018-02-12T18:05:24.434Z,88.41
2018-02-12T18:07:50.397Z,90.07
2018-02-12T18:10:17.377Z,90.70
2018-02-12T18:12:43.411Z,90.68
2018-02-12T18:15:09.437Z,90.34
2018-02-12T18:17:35.443Z,89.48
2018-02-12T18:20:01.556Z,88.71
2018-02-12T18:22:27.730Z,88.13
2018-02-12T18:24:54.140Z,87.66
2018-02-12T18:27:20.257Z,88.67
2018-02-12T18:29:46.223Z,89.55
2018-02-12T18:32:12.308Z,89.73
2018-02-12T18:34:38.239Z,90.01
2018-02-12T18:37:04.303Z,89.41
2018-02-12T18:39:30.289Z,87.83
2018-02-12T18:41:56.688Z,86.84
2018-02-12T18:44:22.698Z,86.86
2018-02-12T18:46:48.749Z,87.18
2018-02-12T18:49:14.802Z,87.52
2018-02-12T18:51:40.851Z,87.45
2018-02-12T18:54:06.968Z,87.64
2018-02-12T18:56:32.953Z,87.99
2018-02-12T18:58:59.045Z,88.51
2018-02-12T19:01:25.056Z,88.00
2018-02-12T19:03:51.069Z,87.90
2018-02-12T19:06:17.474Z,88.78
2018-02-12T19:08:43.525Z,89.20
2018-02-12T19:11:09.555Z,88.67
2018-02-12T19:13:35.520Z,88.91
2018-02-12T19:16:01.510Z,89.30
2018-02-12T19:18:27.540Z,88.79
2018-02-12T19:20:53.605Z,88.40
2018-02-12T19:23:20.046Z,87.95
2018-02-12T19:25:46.120Z,88.33
2018-02-12T19:28:12.119Z,88.36
2018-02-12T19:30:38.113Z,89.06
2018-02-12T19:33:04.130Z,88.70
2018-02-12T19:35:30.136Z,89.11
2018-02-12T19:37:56.180Z,89.45
2018-02-12T19:40:22.521Z,88.79
2018-02-12T19:42:48.508Z,88.14
2018-02-12T19:45:14.587Z,88.29
2018-02-12T19:47:40.633Z,88.58
2018-02-12T19:50:06.693Z,88.25
2018-02-12T19:52:33.093Z,88.55
2018-02-12T19:54:59.096Z,87.62
2018-02-12T19:57:25.170Z,86.69
2018-02-12T19:59:51.203Z,86.37
2018-02-12T20:02:17.238Z,86.61
2018-02-12T20:04:43.774Z,86.52
2018-02-12T20:07:09.724Z,86.85
2018-02-12T20:09:35.752Z,87.21
2018-02-12T20:12:01.825Z,88.57
2018-02-12T20:14:27.809Z,89.00
2018-02-12T20:16:53.833Z,89.66
2018-02-12T20:19:19.891Z,90.37
2018-02-12T20:21:46.218Z,90.08
2018-02-12T20:24:12.247Z,89.94
2018-02-12T20:26:38.252Z,89.85
2018-02-12T20:29:04.365Z,89.21
2018-02-12T20:31:30.361Z,89.79
2018-02-12T20:33:56.831Z,89.50
2018-02-12T20:36:22.896Z,88.04
2018-02-12T20:38:48.969Z,87.43
2018-02-12T20:41:14.993Z,87.46
2018-02-12T20:43:40.968Z,87.76
2018-02-12T20:46:06.989Z,88.61
2018-02-12T20:48:32.993Z,88.67
2018-02-12T20:50:59.045Z,88.42
2018-02-12T20:53:25.017Z,88.38
2018-02-12T20:55:51.381Z,88.27
2018-02-12T20:58:17.344Z,88.07
2018-02-12T21:00:43.292Z,88.07
2018-02-12T21:03:09.300Z,88.29
2018-02-12T21:05:35.304Z,88.98
2018-02-12T21:08:01.314Z,87.98
2018-02-12T21:10:27.297Z,87.32
2018-02-12T21:12:53.637Z,87.04
2018-02-12T21:15:19.666Z,86.97
2018-02-12T21:17:45.656Z,86.81
2018-02-12T21:20:11.692Z,86.85
2018-02-12T21:22:37.713Z,86.70
2018-02-12T21:25:03.697Z,86.38
2018-02-12T21:27:29.744Z,86.59
2018-02-12T21:29:55.741Z,86.64
2018-02-12T21:32:21.742Z,86.86
2018-02-12T21:34:47.720Z,86.84
2018-02-12T21:37:13.744Z,86.64
2018-02-12T21:39:39.730Z,86.81
2018-02-12T21:42:05.832Z,87.05
2018-02-12T21:44:31.861Z,87.60
2018-02-12T21:46:57.906Z,88.66
2018-02-12T21:49:24.006Z,87.89
2018-02-12T21:51:50.073Z,87.35
2018-02-12T21:54:16.071Z,87.36
2018-02-12T21:56:42.018Z,87.33
2018-02-12T21:59:07.994Z,87.53
2018-02-12T22:01:34.124Z,87.81
2018-02-12T22:04:00.205Z,87.70
2018-02-12T22:06:26.634Z,88.06
2018-02-12T22:08:52.648Z,89.32
2018-02-12T22:11:18.714Z,88.92
2018-02-12T22:13:44.713Z,87.63
2018-02-12T22:16:10.697Z,87.40
2018-02-12T22:18:37.042Z,87.72
2018-02-12T22:21:03.037Z,87.78
2018-02-12T22:23:29.132Z,88.26
2018-02-12T22:25:55.140Z,88.32
2018-02-12T22:28:21.130Z,88.65
2018-02-12T22:30:47.202Z,88.63
2018-02-12T22:33:13.217Z,88.46
2018-02-12T22:35:39.190Z,88.59
2018-02-12T22:38:05.186Z,88.65
2018-02-12T22:40:31.553Z,88.73
2018-02-12T22:42:57.522Z,88.52
2018-02-12T22:45:23.533Z,88.77
2018-02-12T22:47:49.565Z,88.97
2018-02-12T22:50:15.562Z,89.07
2018-02-12T22:52:41.565Z,89.24
2018-02-12T22:55:07.580Z,89.28
2018-02-12T22:57:33.677Z,89.44
2018-02-12T22:59:59.682Z,89.35
2018-02-12T23:02:26.112Z,89.41
2018-02-12T23:04:52.145Z,89.20
2018-02-12T23:07:18.137Z,89.23
2018-02-12T23:09:44.143Z,89.34
2018-02-12T23:12:10.401Z,89.31
2018-02-12T23:14:36.349Z,89.15
2018-02-12T23:19:59.250Z,89.24
2018-02-12T23:22:25.193Z,89.05
2018-02-12T23:24:51.522Z,89.21
2018-02-12T23:27:17.509Z,89.00
2018-02-12T23:29:43.509Z,89.09
2018-02-12T23:32:09.528Z,89.11
2018-02-12T23:34:35.593Z,89.03
2018-02-12T23:37:01.620Z,88.82
2018-02-12T23:39:27.631Z,88.69
2018-02-12T23:41:53.992Z,88.93
2018-02-12T23:44:20.148Z,89.71
2018-02-12T23:46:46.153Z,90.11
2018-02-12T23:49:12.245Z,90.05
2018-02-12T23:51:38.284Z,88.72
2018-02-12T23:54:04.293Z,88.84
2018-02-12T23:56:30.297Z,89.35
2018-02-12T23:58:56.323Z,89.13
